Time;durP1;ratioP1;P1;durP2;ratioP2;P2;SDS_P1;SDS_P2;PMS_P1;PMS_P2;Temp;Humidity;BMP_temperature;BMP_pressure;BME280_temperature;BME280_humidity;BME280_pressure;Samples;Min_cycle;Max_cycle;Signal;HPM_P1;HPM_P2
2022/10/16 00:00:38;;;;;;;6.88;1.80;;;14.70;99.90;;;;;;5112717;28;20387;-73
2022/10/16 00:03:04;;;;;;;5.57;1.80;;;14.80;99.90;;;;;;5113082;28;20042;-72
2022/10/16 00:05:30;;;;;;;1.88;1.20;;;14.80;99.90;;;;;;5112595;28;20024;-72
2022/10/16 00:07:56;;;;;;;4.47;1.20;;;14.80;99.90;;;;;;5113355;28;20026;-73
2022/10/16 00:10:22;;;;;;;5.28;1.40;;;14.80;99.90;;;;;;5090621;28;20020;-73
2022/10/16 00:12:47;;;;;;;4.97;1.40;;;14.90;99.90;;;;;;5094704;28;20024;-73
2022/10/16 00:15:13;;;;;;;3.83;1.40;;;14.90;99.90;;;;;;5108590;28;20042;-73
2022/10/16 00:17:39;;;;;;;3.53;1.33;;;14.90;99.90;;;;;;5112597;28;20068;-73
2022/10/16 00:20:05;;;;;;;4.43;1.15;;;14.90;99.90;;;;;;5112183;28;20514;-73
2022/10/16 00:22:31;;;;;;;4.88;0.88;;;14.90;99.90;;;;;;5112638;28;20118;-73
2022/10/16 00:24:56;;;;;;;1.85;1.08;;;14.90;99.90;;;;;;5108464;28;20607;-72
2022/10/16 00:27:22;;;;;;;5.10;1.13;;;14.90;99.90;;;;;;5102735;28;20020;-73
2022/10/16 00:29:52;;;;;;;3.33;0.90;;;14.90;99.90;;;;;;5112662;28;20058;-73
2022/10/16 00:32:19;;;;;;;4.50;1.13;;;15.00;99.90;;;;;;5103638;28;20099;-73
2022/10/16 00:34:45;;;;;;;3.17;0.88;;;15.00;99.90;;;;;;5111230;28;20027;-72
2022/10/16 00:37:10;;;;;;;1.20;0.98;;;15.00;99.90;;;;;;5113137;28;20024;-72
2022/10/16 00:39:36;;;;;;;1.45;0.60;;;15.00;99.90;;;;;;5112092;28;20465;-73
2022/10/16 00:42:02;;;;;;;2.53;0.90;;;15.00;99.90;;;;;;5104104;28;20027;-73
2022/10/16 00:44:52;;;;;;;2.63;1.00;;;15.00;99.90;;;;;;5110591;28;20360;-73
2022/10/16 00:47:38;;;;;;;2.90;0.90;;;15.00;99.90;;;;;;5110138;28;20068;-73
2022/10/16 00:50:18;;;;;;;5.38;0.90;;;15.00;99.90;;;;;;5107272;28;20054;-73
2022/10/16 00:52:47;;;;;;;2.15;0.88;;;15.00;99.90;;;;;;5112153;28;20023;-72
2022/10/16 00:55:13;;;;;;;1.95;1.08;;;15.00;99.90;;;;;;5096931;28;20073;-73
2022/10/16 00:57:40;;;;;;;5.47;1.40;;;15.00;99.90;;;;;;5080431;28;20490;-72
2022/10/16 01:00:08;;;;;;;4.43;1.10;;;14.90;99.90;;;;;;5112278;28;20028;-73
2022/10/16 01:02:34;;;;;;;2.25;1.00;;;14.90;99.90;;;;;;5112009;28;20026;-72
2022/10/16 01:04:59;;;;;;;3.08;1.10;;;14.90;99.90;;;;;;5112140;28;20015;-72
2022/10/16 01:07:43;;;;;;;5.10;1.42;;;14.90;99.90;;;;;;5094783;28;20020;-72
2022/10/16 01:10:33;;;;;;;3.13;1.33;;;14.80;99.90;;;;;;5103208;28;20038;-72
2022/10/16 01:13:21;;;;;;;3.25;1.40;;;14.80;99.90;;;;;;5098743;28;20027;-73
2022/10/16 01:15:59;;;;;;;4.53;1.35;;;14.70;99.90;;;;;;5110960;28;20471;-73
2022/10/16 01:18:27;;;;;;;4.60;1.55;;;14.60;99.90;;;;;;5111367;28;20019;-73
2022/10/16 01:21:05;;;;;;;2.13;1.38;;;14.60;99.90;;;;;;5084736;28;20027;-73
2022/10/16 01:23:51;;;;;;;3.40;1.45;;;14.50;99.90;;;;;;5111033;28;20387;-73
2022/10/16 01:26:30;;;;;;;3.70;1.40;;;14.50;99.90;;;;;;5078632;28;20059;-73
2022/10/16 01:28:59;;;;;;;5.18;1.55;;;14.40;99.90;;;;;;5106433;27;20039;-73
2022/10/16 01:31:28;;;;;;;5.38;1.40;;;14.40;99.90;;;;;;5105015;28;20023;-73
2022/10/16 01:34:04;;;;;;;4.13;1.27;;;14.30;99.90;;;;;;5100730;28;20024;-73
2022/10/16 01:36:39;;;;;;;3.20;1.50;;;14.30;99.90;;;;;;5110563;28;20037;-74
2022/10/16 01:39:06;;;;;;;4.00;1.55;;;14.30;99.90;;;;;;5093213;28;20383;-73
2022/10/16 01:41:43;;;;;;;3.80;1.33;;;14.20;99.90;;;;;;5107153;28;20039;-73
2022/10/16 01:44:14;;;;;;;3.80;1.40;;;14.20;99.90;;;;;;5109195;28;20020;-73
2022/10/16 01:46:45;;;;;;;4.93;1.48;;;14.20;99.90;;;;;;5109660;28;20699;-73
2022/10/16 01:49:12;;;;;;;2.15;1.10;;;14.20;99.90;;;;;;5110283;28;20130;-73
2022/10/16 01:51:38;;;;;;;2.25;1.23;;;14.10;99.90;;;;;;5110231;28;20036;-73
2022/10/16 01:54:07;;;;;;;4.05;1.30;;;14.10;99.90;;;;;;5111074;28;20022;-73
2022/10/16 01:56:35;;;;;;;4.22;1.90;;;14.10;99.90;;;;;;5110849;28;20034;-73
2022/10/16 01:59:06;;;;;;;3.13;1.40;;;14.10;99.90;;;;;;5108237;28;20290;-73
2022/10/16 02:01:34;;;;;;;2.83;1.45;;;14.00;99.90;;;;;;5111006;28;20472;-73
2022/10/16 02:04:15;;;;;;;1.85;1.48;;;14.00;99.90;;;;;;5109517;28;20498;-73
2022/10/16 02:06:41;;;;;;;3.40;1.70;;;14.00;99.90;;;;;;5097316;28;20447;-73
2022/10/16 02:09:07;;;;;;;2.70;1.75;;;14.00;99.90;;;;;;5106040;28;20062;-73
2022/10/16 02:11:32;;;;;;;5.53;2.08;;;14.00;99.90;;;;;;5110253;28;20421;-73
2022/10/16 02:14:04;;;;;;;5.03;2.00;;;14.00;99.90;;;;;;5110432;28;20374;-73
2022/10/16 02:16:42;;;;;;;5.68;2.10;;;14.00;99.90;;;;;;5110296;28;20375;-73
2022/10/16 02:19:08;;;;;;;3.25;1.80;;;14.00;99.90;;;;;;5110577;28;20023;-73
2022/10/16 02:21:41;;;;;;;4.95;2.13;;;14.00;99.90;;;;;;5102144;28;20500;-73
2022/10/16 02:24:13;;;;;;;3.97;1.88;;;14.00;99.90;;;;;;5105059;28;20063;-73
2022/10/16 02:27:03;;;;;;;5.05;1.98;;;14.00;99.90;;;;;;5110149;28;20027;-73
2022/10/16 02:29:29;;;;;;;4.35;2.03;;;14.00;99.90;;;;;;5110303;28;20030;-73
2022/10/16 02:32:04;;;;;;;6.35;2.20;;;14.00;99.90;;;;;;5110846;28;20030;-73
2022/10/16 02:34:31;;;;;;;7.15;2.47;;;14.00;99.90;;;;;;5110258;28;20057;-73
2022/10/16 02:36:59;;;;;;;5.07;1.98;;;14.00;99.90;;;;;;5109688;28;20039;-73
2022/10/16 02:39:28;;;;;;;4.13;2.10;;;14.00;99.90;;;;;;5109855;28;20034;-73
2022/10/16 02:41:53;;;;;;;6.38;1.92;;;14.00;99.90;;;;;;5109924;28;20035;-73
2022/10/16 02:44:19;;;;;;;6.63;1.80;;;14.00;99.90;;;;;;5109738;28;20031;-73
2022/10/16 02:46:44;;;;;;;4.72;1.95;;;14.00;99.90;;;;;;5102876;28;20016;-73
2022/10/16 02:49:10;;;;;;;5.95;1.80;;;13.90;99.90;;;;;;5091291;28;20408;-73
2022/10/16 02:51:35;;;;;;;3.15;1.60;;;13.90;99.90;;;;;;5108298;28;20439;-72
2022/10/16 02:54:02;;;;;;;7.80;2.10;;;13.90;99.90;;;;;;5095543;28;20111;-73
2022/10/16 02:56:29;;;;;;;5.43;2.15;;;13.90;99.90;;;;;;5101805;28;20020;-73
2022/10/16 02:58:55;;;;;;;6.32;2.00;;;13.90;99.90;;;;;;5097247;28;20036;-73
2022/10/16 03:01:21;;;;;;;4.03;1.63;;;13.90;99.90;;;;;;5111036;28;20051;-73
2022/10/16 03:03:46;;;;;;;3.35;1.85;;;13.90;99.90;;;;;;5110313;28;20042;-73
2022/10/16 03:06:12;;;;;;;6.80;1.45;;;13.90;99.90;;;;;;5109063;28;20048;-73
2022/10/16 03:08:37;;;;;;;4.05;1.50;;;13.90;99.90;;;;;;5094772;28;20016;-73
2022/10/16 03:11:03;;;;;;;6.43;1.75;;;13.90;99.90;;;;;;5106148;28;20031;-73
2022/10/16 03:13:28;;;;;;;5.78;1.73;;;14.00;99.90;;;;;;5113475;28;20399;-73
2022/10/16 03:15:54;;;;;;;7.82;1.60;;;14.00;99.90;;;;;;5100015;28;20047;-72
2022/10/16 03:18:20;;;;;;;4.00;1.50;;;14.00;99.90;;;;;;5105779;28;20020;-73
2022/10/16 03:20:45;;;;;;;5.28;1.60;;;14.00;99.90;;;;;;5105078;28;20032;-73
2022/10/16 03:23:11;;;;;;;7.10;1.80;;;14.10;99.90;;;;;;5102919;28;20023;-73
2022/10/16 03:25:37;;;;;;;8.13;1.80;;;14.10;99.90;;;;;;5103749;28;20106;-73
2022/10/16 03:28:03;;;;;;;4.40;1.63;;;14.10;99.90;;;;;;5113598;28;20023;-73
2022/10/16 03:30:28;;;;;;;5.80;1.63;;;14.10;99.90;;;;;;5085911;28;20016;-73
2022/10/16 03:32:54;;;;;;;4.88;1.92;;;14.10;99.90;;;;;;5109252;28;20080;-73
2022/10/16 03:35:23;;;;;;;2.72;1.35;;;14.10;99.90;;;;;;5105374;28;20104;-73
2022/10/16 03:37:49;;;;;;;4.40;1.60;;;14.10;99.90;;;;;;5107266;28;20046;-73
2022/10/16 03:40:16;;;;;;;3.90;1.50;;;14.10;99.90;;;;;;5113632;28;20012;-73
2022/10/16 03:42:45;;;;;;;8.32;1.40;;;14.10;99.90;;;;;;5108951;28;20055;-73
2022/10/16 03:45:11;;;;;;;6.90;1.67;;;14.10;99.90;;;;;;5091420;28;20016;-73
2022/10/16 03:47:37;;;;;;;5.60;1.50;;;14.10;99.90;;;;;;5102370;28;20099;-73
2022/10/16 03:50:03;;;;;;;6.53;2.00;;;14.10;99.90;;;;;;5102979;28;20150;-73
2022/10/16 03:52:28;;;;;;;4.65;1.38;;;14.10;99.90;;;;;;5109529;28;20026;-73
2022/10/16 03:54:54;;;;;;;3.38;1.58;;;14.10;99.90;;;;;;5102319;28;20383;-73
2022/10/16 03:57:20;;;;;;;5.40;1.75;;;14.20;99.90;;;;;;5110088;28;20116;-73
2022/10/16 03:59:46;;;;;;;8.88;1.85;;;14.10;99.90;;;;;;5102660;28;21470;-73
2022/10/16 04:02:11;;;;;;;7.18;1.83;;;14.10;99.90;;;;;;5111806;28;20024;-73
2022/10/16 04:04:37;;;;;;;5.35;1.63;;;14.10;99.90;;;;;;5089427;28;20468;-73
2022/10/16 04:07:02;;;;;;;4.10;1.60;;;14.00;99.90;;;;;;5098210;28;20024;-73
2022/10/16 04:09:28;;;;;;;5.32;1.65;;;14.00;99.90;;;;;;5093432;28;20013;-73
2022/10/16 04:11:54;;;;;;;4.28;1.70;;;14.00;99.90;;;;;;5106991;28;20492;-73
2022/10/16 04:14:19;;;;;;;6.60;1.83;;;14.00;99.90;;;;;;5090751;28;20051;-73
2022/10/16 04:16:45;;;;;;;6.25;1.80;;;14.00;99.90;;;;;;5106965;28;20483;-73
2022/10/16 04:19:11;;;;;;;4.10;2.00;;;14.00;99.90;;;;;;5111825;28;20031;-73
2022/10/16 04:21:37;;;;;;;9.43;1.80;;;14.00;99.90;;;;;;5112654;28;20040;-73
2022/10/16 04:24:03;;;;;;;4.80;1.70;;;14.00;99.90;;;;;;5112763;28;20035;-73
2022/10/16 04:26:29;;;;;;;4.53;1.90;;;14.00;99.90;;;;;;5112688;28;20023;-73
2022/10/16 04:28:55;;;;;;;5.68;1.52;;;14.00;99.90;;;;;;5112254;28;20019;-73
2022/10/16 04:31:21;;;;;;;5.40;1.63;;;14.00;99.90;;;;;;5112288;28;20051;-73
2022/10/16 04:33:47;;;;;;;6.53;1.65;;;14.00;99.90;;;;;;5102854;28;20056;-73
2022/10/16 04:36:12;;;;;;;4.38;1.77;;;14.00;99.90;;;;;;5087794;28;20027;-73
2022/10/16 04:38:39;;;;;;;4.95;1.70;;;14.00;99.90;;;;;;5099481;28;20023;-73
2022/10/16 04:41:06;;;;;;;3.92;1.65;;;14.00;99.90;;;;;;5112148;28;20058;-73
2022/10/16 04:43:32;;;;;;;6.88;1.85;;;14.00;99.90;;;;;;5111381;28;20028;-73
2022/10/16 04:45:58;;;;;;;4.90;1.42;;;14.00;99.90;;;;;;5103098;28;20031;-73
2022/10/16 04:48:23;;;;;;;5.15;1.73;;;14.00;99.90;;;;;;5103069;28;20130;-73
2022/10/16 04:50:49;;;;;;;3.67;1.58;;;14.00;99.90;;;;;;5100862;28;20031;-73
2022/10/16 04:53:15;;;;;;;6.13;1.50;;;14.00;99.90;;;;;;5099614;28;20049;-74
2022/10/16 04:55:42;;;;;;;2.53;1.65;;;14.00;99.90;;;;;;5109443;28;20402;-73
2022/10/16 04:58:08;;;;;;;7.93;1.73;;;14.00;99.90;;;;;;5099775;28;20020;-74
2022/10/16 05:00:34;;;;;;;6.05;1.90;;;14.00;99.90;;;;;;5105260;28;20027;-73
2022/10/16 05:03:00;;;;;;;7.55;2.10;;;14.00;99.90;;;;;;5100595;28;20020;-73
2022/10/16 05:05:26;;;;;;;3.83;1.60;;;14.00;99.90;;;;;;5098926;28;20105;-72
2022/10/16 05:07:52;;;;;;;5.50;2.35;;;14.00;99.90;;;;;;5108265;28;20051;-73
2022/10/16 05:10:19;;;;;;;9.10;2.20;;;14.00;99.90;;;;;;5097751;28;20538;-73
2022/10/16 05:12:44;;;;;;;8.27;2.40;;;14.00;99.90;;;;;;5108774;28;20033;-73
2022/10/16 05:15:10;;;;;;;6.82;2.42;;;14.00;99.90;;;;;;5103525;28;20106;-73
2022/10/16 05:17:36;;;;;;;8.13;2.67;;;14.00;99.90;;;;;;5092793;28;20024;-73
2022/10/16 05:20:03;;;;;;;7.70;2.40;;;14.00;99.90;;;;;;5107886;28;20042;-73
2022/10/16 05:22:28;;;;;;;12.50;2.33;;;14.00;99.90;;;;;;5110195;28;20024;-73
2022/10/16 05:24:54;;;;;;;6.10;2.35;;;13.90;99.90;;;;;;5110625;28;20026;-73
2022/10/16 05:27:20;;;;;;;6.63;2.45;;;13.90;99.90;;;;;;5111392;28;20498;-73
2022/10/16 05:29:46;;;;;;;6.20;2.47;;;13.90;99.90;;;;;;5089824;28;20752;-73
2022/10/16 05:32:16;;;;;;;5.43;2.50;;;13.80;99.90;;;;;;5101203;28;20043;-73
2022/10/16 05:34:41;;;;;;;5.28;2.30;;;13.80;99.90;;;;;;5111365;28;20089;-74
2022/10/16 05:37:07;;;;;;;6.70;2.50;;;13.80;99.90;;;;;;5111121;28;20027;-73
2022/10/16 05:39:33;;;;;;;8.80;2.67;;;13.70;99.90;;;;;;5111053;28;20479;-74
2022/10/16 05:41:59;;;;;;;7.35;2.67;;;13.70;99.90;;;;;;5110792;28;20059;-73
2022/10/16 05:44:24;;;;;;;6.72;2.70;;;13.70;99.90;;;;;;5107449;28;20024;-74
2022/10/16 05:46:50;;;;;;;7.55;2.53;;;13.70;99.90;;;;;;5105728;28;20424;-73
2022/10/16 05:49:16;;;;;;;9.38;2.60;;;13.60;99.90;;;;;;5104234;28;20060;-73
2022/10/16 05:51:41;;;;;;;6.43;2.63;;;13.60;99.90;;;;;;5103978;28;20079;-73
2022/10/16 05:54:07;;;;;;;6.70;2.75;;;13.60;99.90;;;;;;5100271;28;20024;-73
2022/10/16 05:56:33;;;;;;;7.10;2.78;;;13.60;99.90;;;;;;5105530;28;20074;-73
2022/10/16 05:58:59;;;;;;;4.88;2.40;;;13.60;99.90;;;;;;5109649;28;20063;-73
2022/10/16 06:01:24;;;;;;;9.15;2.58;;;13.60;99.90;;;;;;5108647;28;20104;-73
2022/10/16 06:03:51;;;;;;;9.77;2.55;;;13.60;99.90;;;;;;5095876;28;20749;-73
2022/10/16 06:06:22;;;;;;;5.93;2.20;;;13.60;99.90;;;;;;5109670;28;20056;-74
2022/10/16 06:08:49;;;;;;;8.32;2.30;;;13.60;99.90;;;;;;5097481;28;20039;-73
2022/10/16 06:11:20;;;;;;;10.23;2.58;;;13.60;99.90;;;;;;5109361;28;20085;-73
2022/10/16 06:13:53;;;;;;;6.75;2.20;;;13.60;99.90;;;;;;5099707;28;20038;-73
2022/10/16 06:16:19;;;;;;;7.30;2.00;;;13.60;99.90;;;;;;5107684;28;20035;-73
2022/10/16 06:18:45;;;;;;;7.10;1.90;;;13.60;99.90;;;;;;5109867;28;20097;-73
2022/10/16 06:21:20;;;;;;;8.85;2.63;;;13.60;99.90;;;;;;5091999;28;20051;-73
2022/10/16 06:23:46;;;;;;;9.90;2.28;;;13.60;99.90;;;;;;5101179;28;20114;-72
2022/10/16 06:26:17;;;;;;;10.18;1.85;;;13.60;99.90;;;;;;5110337;28;20179;-73
2022/10/16 06:28:43;;;;;;;10.50;2.08;;;13.60;99.90;;;;;;5110614;28;20027;-73
2022/10/16 06:31:10;;;;;;;10.18;2.00;;;13.60;99.90;;;;;;5109660;28;20031;-73
2022/10/16 06:33:37;;;;;;;11.02;2.10;;;13.60;99.90;;;;;;5102319;28;20030;-73
2022/10/16 06:36:04;;;;;;;9.52;1.88;;;13.60;99.90;;;;;;5103968;28;20020;-73
2022/10/16 06:38:30;;;;;;;7.82;1.75;;;13.60;99.90;;;;;;5107834;28;20054;-73
2022/10/16 06:40:55;;;;;;;7.25;1.70;;;13.60;99.90;;;;;;5105271;28;20019;-73
2022/10/16 06:43:21;;;;;;;10.02;2.25;;;13.60;99.90;;;;;;5105690;28;20036;-73
2022/10/16 06:45:56;;;;;;;7.32;1.80;;;13.60;99.90;;;;;;5095768;28;20028;-72
2022/10/16 06:48:23;;;;;;;6.88;1.80;;;13.60;99.90;;;;;;5095066;28;20059;-73
2022/10/16 06:50:59;;;;;;;8.48;2.03;;;13.60;99.90;;;;;;5101485;28;20344;-73
2022/10/16 06:53:26;;;;;;;7.40;1.90;;;13.60;99.90;;;;;;5107071;28;20020;-73
2022/10/16 06:55:52;;;;;;;6.97;1.60;;;13.60;99.90;;;;;;5106199;28;20038;-73
2022/10/16 06:58:18;;;;;;;6.60;2.30;;;13.60;99.90;;;;;;5095224;28;20024;-73
2022/10/16 07:00:44;;;;;;;4.72;1.83;;;13.60;99.90;;;;;;5103556;28;20496;-73
2022/10/16 07:03:09;;;;;;;7.38;1.85;;;13.60;99.90;;;;;;5090155;28;20031;-73
2022/10/16 07:05:42;;;;;;;8.88;2.00;;;13.60;99.90;;;;;;5103558;28;20020;-73
2022/10/16 07:08:08;;;;;;;7.18;2.17;;;13.60;99.90;;;;;;5102344;28;20023;-73
2022/10/16 07:10:34;;;;;;;6.85;2.10;;;13.50;99.90;;;;;;5099721;28;20032;-72
2022/10/16 07:13:00;;;;;;;13.65;2.65;;;13.50;99.90;;;;;;5104836;28;20028;-73
2022/10/16 07:15:26;;;;;;;7.93;2.10;;;13.50;99.90;;;;;;5104765;28;20019;-73
2022/10/16 07:17:52;;;;;;;9.90;2.20;;;13.50;99.90;;;;;;5102939;28;20024;-72
2022/10/16 07:20:17;;;;;;;9.20;2.47;;;13.50;99.90;;;;;;5109733;28;20050;-72
2022/10/16 07:22:43;;;;;;;14.40;2.55;;;13.50;99.90;;;;;;5109309;28;20034;-73
2022/10/16 07:25:09;;;;;;;11.65;2.40;;;13.60;99.90;;;;;;5110005;28;20038;-73
2022/10/16 07:27:34;;;;;;;11.32;2.60;;;13.60;99.90;;;;;;5109575;28;20022;-72
2022/10/16 07:30:00;;;;;;;11.95;2.60;;;13.60;99.90;;;;;;5109807;28;20035;-73
2022/10/16 07:32:26;;;;;;;7.43;2.25;;;13.60;99.90;;;;;;5081973;28;20499;-73
2022/10/16 07:34:52;;;;;;;8.02;2.25;;;13.60;99.90;;;;;;5100606;28;20053;-73
2022/10/16 07:37:18;;;;;;;12.35;2.42;;;13.70;99.90;;;;;;5088126;28;20060;-73
2022/10/16 07:39:43;;;;;;;5.05;1.98;;;13.70;99.90;;;;;;5104711;28;20059;-73
2022/10/16 07:42:09;;;;;;;7.90;2.00;;;13.70;99.90;;;;;;5108198;28;20032;-73
2022/10/16 07:44:35;;;;;;;9.70;2.33;;;13.70;99.90;;;;;;5084981;28;20056;-73
2022/10/16 07:47:01;;;;;;;13.45;2.75;;;13.80;99.90;;;;;;5109848;28;20046;-73
2022/10/16 07:49:27;;;;;;;13.02;2.33;;;13.80;99.90;;;;;;5103983;28;20051;-73
2022/10/16 07:51:52;;;;;;;9.30;2.60;;;13.80;99.90;;;;;;5112250;28;20072;-73
2022/10/16 07:54:18;;;;;;;16.65;2.72;;;13.80;99.90;;;;;;5108869;28;20376;-72
2022/10/16 07:56:43;;;;;;;12.45;2.42;;;13.90;99.90;;;;;;5110763;28;20388;-73
2022/10/16 07:59:09;;;;;;;12.02;2.78;;;13.90;99.90;;;;;;5088433;28;20020;-73
2022/10/16 08:01:34;;;;;;;12.80;2.70;;;14.00;99.90;;;;;;5111051;28;20035;-73
2022/10/16 08:04:00;;;;;;;6.10;1.90;;;14.00;99.90;;;;;;5109023;28;20508;-75
2022/10/16 08:06:26;;;;;;;8.52;2.05;;;14.00;99.90;;;;;;5111406;28;20022;-72
2022/10/16 08:08:51;;;;;;;8.65;2.15;;;14.00;99.90;;;;;;5105085;28;20024;-73
2022/10/16 08:11:17;;;;;;;10.65;2.25;;;14.10;99.90;;;;;;5112091;28;20059;-73
2022/10/16 08:13:43;;;;;;;12.07;2.45;;;14.10;99.90;;;;;;5106823;28;20028;-73
2022/10/16 08:16:09;;;;;;;11.70;2.53;;;14.20;99.90;;;;;;5101093;28;20024;-73
2022/10/16 08:18:36;;;;;;;13.77;2.53;;;14.20;99.90;;;;;;5105761;28;20375;-73
2022/10/16 08:21:03;;;;;;;13.25;2.50;;;14.30;99.90;;;;;;5111071;28;20032;-72
2022/10/16 08:23:28;;;;;;;12.05;2.50;;;14.30;99.90;;;;;;5112753;28;20036;-72
2022/10/16 08:25:55;;;;;;;9.65;2.15;;;14.30;99.90;;;;;;5111875;28;20644;-72
2022/10/16 08:28:22;;;;;;;11.20;2.28;;;14.40;99.90;;;;;;5111857;28;20529;-73
2022/10/16 08:30:47;;;;;;;11.07;2.40;;;14.50;99.90;;;;;;5110646;28;20039;-73
2022/10/16 08:33:13;;;;;;;10.10;2.58;;;14.50;99.90;;;;;;5107516;28;20024;-73
2022/10/16 08:35:39;;;;;;;14.00;2.40;;;14.60;99.90;;;;;;5091501;28;20379;-73
2022/10/16 08:38:06;;;;;;;11.05;2.40;;;14.60;99.90;;;;;;5111534;28;20036;-73
2022/10/16 08:40:34;;;;;;;14.07;2.45;;;14.70;99.90;;;;;;5110396;28;20029;-73
2022/10/16 08:43:11;;;;;;;13.93;2.35;;;14.80;99.90;;;;;;5103083;28;20131;-73
2022/10/16 08:46:06;;;;;;;15.63;2.33;;;14.90;99.90;;;;;;5105554;28;20032;-73
2022/10/16 08:48:51;;;;;;;13.40;2.22;;;15.00;99.90;;;;;;5106108;28;20040;-73
2022/10/16 08:51:37;;;;;;;12.07;2.40;;;15.10;99.90;;;;;;5091535;28;20096;-73
2022/10/16 08:54:05;;;;;;;13.65;2.40;;;15.10;99.90;;;;;;5101062;28;20126;-73
2022/10/16 08:56:32;;;;;;;16.50;2.53;;;15.20;99.90;;;;;;5100787;28;20099;-73
2022/10/16 08:58:59;;;;;;;10.52;2.38;;;15.20;99.90;;;;;;5111483;28;20058;-73
2022/10/16 09:01:38;;;;;;;10.65;2.22;;;15.30;99.90;;;;;;5106588;28;20035;-73
2022/10/16 09:04:32;;;;;;;13.68;2.28;;;15.40;99.90;;;;;;5110376;28;20020;-73
2022/10/16 09:07:09;;;;;;;12.27;2.20;;;15.50;99.90;;;;;;5105275;28;20034;-72
2022/10/16 09:09:37;;;;;;;13.18;2.10;;;15.50;99.90;;;;;;5094816;28;20027;-73
2022/10/16 09:12:12;;;;;;;13.80;2.30;;;15.50;99.90;;;;;;5099860;28;20035;-73
2022/10/16 09:14:52;;;;;;;12.77;2.10;;;15.60;99.90;;;;;;5107952;28;20016;-73
2022/10/16 09:17:45;;;;;;;14.98;1.98;;;15.60;99.90;;;;;;5092093;28;20796;-73
2022/10/16 09:20:36;;;;;;;10.15;2.08;;;15.70;99.90;;;;;;5111775;28;20077;-73
2022/10/16 09:23:04;;;;;;;16.15;2.17;;;15.80;99.90;;;;;;5110417;28;20027;-72
2022/10/16 09:25:32;;;;;;;14.10;2.13;;;15.90;99.90;;;;;;5105455;28;20106;-72
2022/10/16 09:27:57;;;;;;;12.25;1.95;;;15.90;99.90;;;;;;5107960;28;20035;-73
2022/10/16 09:30:29;;;;;;;22.15;7.10;;;16.00;99.90;;;;;;5107870;28;20081;-73
2022/10/16 09:32:57;;;;;;;33.92;16.30;;;16.00;99.90;;;;;;5107032;28;20088;-74
2022/10/16 09:35:43;;;;;;;23.67;8.70;;;16.10;99.90;;;;;;5106266;28;20019;-73
2022/10/16 09:38:30;;;;;;;16.25;2.88;;;16.20;99.90;;;;;;5101110;28;20050;-73
2022/10/16 09:40:59;;;;;;;15.00;3.63;;;16.30;99.90;;;;;;5095467;28;20032;-73
2022/10/16 09:43:48;;;;;;;17.95;2.58;;;16.30;99.90;;;;;;5102699;28;20028;-73
2022/10/16 09:46:25;;;;;;;11.40;2.08;;;16.40;99.90;;;;;;5096953;28;20036;-74
2022/10/16 09:48:58;;;;;;;16.63;2.63;;;16.40;99.90;;;;;;5097778;28;20048;-74
2022/10/16 09:51:29;;;;;;;11.25;2.30;;;16.50;99.90;;;;;;5097783;28;20491;-74
2022/10/16 09:54:00;;;;;;;11.82;2.30;;;16.60;99.90;;;;;;5090339;28;20020;-73
2022/10/16 09:56:32;;;;;;;13.27;2.10;;;16.70;99.90;;;;;;5090711;28;20491;-74
2022/10/16 09:59:02;;;;;;;15.02;2.17;;;16.80;99.90;;;;;;5104989;28;20085;-74
2022/10/16 10:01:40;;;;;;;13.82;2.00;;;16.80;99.90;;;;;;5104367;28;20024;-73
2022/10/16 10:04:07;;;;;;;14.77;2.10;;;16.80;99.90;;;;;;5097580;28;20490;-75
2022/10/16 10:06:45;;;;;;;10.88;2.22;;;16.80;99.90;;;;;;5090877;28;20032;-73
2022/10/16 10:09:37;;;;;;;16.10;2.50;;;16.80;99.90;;;;;;5097482;28;20038;-73
2022/10/16 10:12:03;;;;;;;11.82;1.90;;;16.70;99.90;;;;;;5104667;28;20574;-74
2022/10/16 10:14:46;;;;;;;13.68;2.20;;;16.70;99.90;;;;;;5098440;28;20016;-74
2022/10/16 10:17:18;;;;;;;14.05;2.08;;;16.80;99.90;;;;;;5094084;28;20146;-74
2022/10/16 10:20:22;;;;;;;12.13;2.40;;;16.90;99.90;;;;;;5093395;28;20016;-73
2022/10/16 10:22:48;;;;;;;19.92;2.75;;;17.00;99.90;;;;;;5082319;28;20047;-74
2022/10/16 10:25:14;;;;;;;13.05;2.35;;;17.10;99.90;;;;;;5112004;28;20375;-73
2022/10/16 10:27:48;;;;;;;16.77;2.40;;;17.20;99.90;;;;;;5111874;28;20149;-73
2022/10/16 10:30:27;;;;;;;7.80;2.00;;;17.30;99.90;;;;;;5098255;28;20421;-74
2022/10/16 10:33:38;;;;;;;21.63;2.83;;;17.40;99.90;;;;;;5096839;28;20016;-73
2022/10/16 10:36:15;;;;;;;12.65;2.72;;;17.60;99.90;;;;;;5088869;28;20032;-75
2022/10/16 10:38:44;;;;;;;16.38;2.72;;;17.60;99.90;;;;;;5098234;28;20480;-73
2022/10/16 10:41:24;;;;;;;12.82;1.98;;;17.60;99.90;;;;;;5093770;28;20030;-73
2022/10/16 10:44:27;;;;;;;12.27;2.15;;;17.60;99.90;;;;;;5109916;28;20052;-74
2022/10/16 10:47:02;;;;;;;14.70;2.60;;;17.60;99.90;;;;;;5089932;28;20356;-73
2022/10/16 10:49:37;;;;;;;16.58;2.20;;;17.70;99.90;;;;;;5102473;28;20051;-73
2022/10/16 10:52:24;;;;;;;17.85;2.50;;;17.80;99.90;;;;;;5099684;28;20157;-74
2022/10/16 10:54:59;;;;;;;20.05;3.03;;;17.90;99.90;;;;;;5087146;28;20012;-77
2022/10/16 10:57:28;;;;;;;;;;;17.90;99.90;;;;;;5091227;28;20031;-74
2022/10/16 11:00:17;;;;;;;15.98;2.85;;;17.80;99.90;;;;;;5092686;28;19915;-74
2022/10/16 11:03:09;;;;;;;14.05;1.90;;;17.70;99.90;;;;;;5097778;28;20028;-73
2022/10/16 11:05:40;;;;;;;7.93;1.50;;;17.70;99.90;;;;;;5097273;28;20011;-73
2022/10/16 11:08:17;;;;;;;11.82;1.85;;;17.90;99.90;;;;;;5102812;28;20022;-74
2022/10/16 11:10:46;;;;;;;13.93;2.25;;;18.00;99.90;;;;;;5110063;28;20035;-74
2022/10/16 11:13:47;;;;;;;15.80;2.08;;;18.10;99.90;;;;;;5103916;28;20026;-75
2022/10/16 11:16:25;;;;;;;11.75;1.85;;;18.30;99.90;;;;;;5091236;28;20044;-73
2022/10/16 11:19:10;;;;;;;13.35;2.50;;;18.30;99.90;;;;;;5104037;28;20032;-74
2022/10/16 11:22:06;;;;;;;9.03;1.77;;;18.40;99.90;;;;;;5079921;28;20032;-73
2022/10/16 11:24:59;;;;;;;12.70;1.77;;;18.50;99.90;;;;;;5114992;28;20460;-72
2022/10/16 11:28:00;;;;;;;12.05;1.75;;;18.50;99.90;;;;;;5093271;28;20111;-73
2022/10/16 11:30:33;;;;;;;16.13;2.47;;;18.40;99.90;;;;;;5099359;28;20028;-72
2022/10/16 11:33:08;;;;;;;10.88;1.75;;;18.30;99.90;;;;;;5104727;28;20042;-73
2022/10/16 11:35:47;;;;;;;14.70;2.38;;;18.20;99.90;;;;;;5112718;28;20016;-72
2022/10/16 11:38:27;;;;;;;12.38;2.08;;;18.10;99.90;;;;;;5102457;28;20028;-72
2022/10/16 11:40:57;;;;;;;11.05;2.00;;;18.00;99.90;;;;;;5099528;28;20032;-73
2022/10/16 11:43:37;;;;;;;15.55;2.40;;;17.80;99.90;;;;;;5108799;28;20023;-73
2022/10/16 11:46:11;;;;;;;13.82;2.15;;;17.80;99.90;;;;;;5098782;28;20074;-72
2022/10/16 11:49:00;;;;;;;12.90;2.27;;;17.70;99.90;;;;;;5095162;28;20053;-72
2022/10/16 11:51:55;;;;;;;11.35;1.88;;;17.70;99.90;;;;;;5113134;28;20322;-72
2022/10/16 11:54:37;;;;;;;17.38;2.78;;;17.90;99.90;;;;;;5100345;28;20062;-73
2022/10/16 11:57:14;;;;;;;19.13;2.42;;;17.90;99.90;;;;;;5109652;28;20016;-75
2022/10/16 11:59:45;;;;;;;11.05;1.90;;;17.90;99.90;;;;;;5098953;28;20433;-76
2022/10/16 12:02:32;;;;;;;13.30;2.22;;;17.90;99.90;;;;;;5117003;28;20106;-75
2022/10/16 12:05:23;;;;;;;10.85;2.00;;;18.00;99.90;;;;;;5114878;28;20472;-74
2022/10/16 12:08:07;;;;;;;14.80;2.05;;;18.10;99.90;;;;;;5098625;28;20024;-74
2022/10/16 12:10:36;;;;;;;11.35;1.70;;;18.20;99.90;;;;;;5114092;28;20019;-75
2022/10/16 12:13:03;;;;;;;13.27;2.00;;;18.30;99.90;;;;;;5104065;28;20036;-75
2022/10/16 12:15:33;;;;;;;11.63;2.05;;;18.30;99.90;;;;;;5100379;28;20035;-74
2022/10/16 12:17:59;;;;;;;15.63;2.33;;;18.40;99.90;;;;;;5116286;28;20024;-74
2022/10/16 12:20:27;;;;;;;11.65;2.15;;;18.40;99.90;;;;;;5088980;28;20109;-74
2022/10/16 12:23:03;;;;;;;10.30;1.88;;;18.40;99.90;;;;;;5114753;28;20107;-74
2022/10/16 12:25:35;;;;;;;11.32;1.95;;;18.40;99.90;;;;;;5110627;28;20375;-74
2022/10/16 12:28:05;;;;;;;19.60;2.50;;;18.50;99.90;;;;;;5119313;28;20008;-74
2022/10/16 12:30:34;;;;;;;11.45;1.90;;;18.50;99.90;;;;;;5102735;28;20372;-74
2022/10/16 12:33:04;;;;;;;15.45;2.70;;;18.40;99.90;;;;;;5106415;28;20396;-74
2022/10/16 12:35:33;;;;;;;12.77;2.00;;;18.30;99.90;;;;;;5103861;28;20023;-74
2022/10/16 12:38:32;;;;;;;8.38;1.85;;;18.30;99.90;;;;;;5101468;28;20023;-74
2022/10/16 12:41:10;;;;;;;13.02;1.83;;;18.20;99.90;;;;;;5067637;28;20086;-74
2022/10/16 12:43:44;;;;;;;14.45;1.95;;;18.20;99.90;;;;;;5100833;28;20024;-74
2022/10/16 12:46:09;;;;;;;12.52;2.00;;;18.20;99.90;;;;;;5112692;28;20024;-74
2022/10/16 12:48:41;;;;;;;15.55;2.42;;;18.20;99.90;;;;;;5098277;28;20150;-73
2022/10/16 12:51:10;;;;;;;11.18;1.77;;;18.20;99.90;;;;;;5099296;28;20054;-74
2022/10/16 12:53:35;;;;;;;13.88;2.15;;;18.20;99.90;;;;;;5117394;28;20221;-74
2022/10/16 12:56:04;;;;;;;14.02;2.22;;;18.20;99.90;;;;;;5084898;28;20015;-73
2022/10/16 12:58:57;;;;;;;17.60;2.38;;;18.20;99.90;;;;;;5101019;28;20085;-74
2022/10/16 13:01:44;;;;;;;15.05;2.35;;;18.30;99.90;;;;;;5103103;28;20143;-74